sensor_id;sensor_type;location;lat;lon;timestamp;P1;durP1;ratioP1;P2;durP2;ratioP2
61569;SDS011;47462;59.172;17.196;2024-03-02T00:00:08;28.77;;;17.50;;
61569;SDS011;47462;59.172;17.196;2024-03-02T00:02:43;29.55;;;17.25;;
61569;SDS011;47462;59.172;17.196;2024-03-02T00:05:16;29.55;;;17.35;;
61569;SDS011;47462;59.172;17.196;2024-03-02T00:07:43;30.20;;;16.88;;
61569;SDS011;47462;59.172;17.196;2024-03-02T00:10:10;31.10;;;16.70;;
61569;SDS011;47462;59.172;17.196;2024-03-02T00:12:37;54.72;;;16.95;;
61569;SDS011;47462;59.172;17.196;2024-03-02T00:15:05;66.55;;;17.67;;
61569;SDS011;47462;59.172;17.196;2024-03-02T00:17:46;28.52;;;16.73;;
61569;SDS011;47462;59.172;17.196;2024-03-02T00:20:18;36.10;;;17.05;;
61569;SDS011;47462;59.172;17.196;2024-03-02T00:22:47;34.65;;;16.60;;
61569;SDS011;47462;59.172;17.196;2024-03-02T00:25:12;27.63;;;16.83;;
61569;SDS011;47462;59.172;17.196;2024-03-02T00:27:37;50.67;;;17.30;;
61569;SDS011;47462;59.172;17.196;2024-03-02T00:30:06;32.10;;;16.10;;
61569;SDS011;47462;59.172;17.196;2024-03-02T00:32:58;27.17;;;16.58;;
61569;SDS011;47462;59.172;17.196;2024-03-02T00:35:24;23.38;;;15.07;;
61569;SDS011;47462;59.172;17.196;2024-03-02T00:37:49;28.90;;;16.07;;
61569;SDS011;47462;59.172;17.196;2024-03-02T00:40:15;32.83;;;17.37;;
61569;SDS011;47462;59.172;17.196;2024-03-02T00:42:42;27.60;;;16.55;;
61569;SDS011;47462;59.172;17.196;2024-03-02T00:45:07;28.53;;;17.93;;
61569;SDS011;47462;59.172;17.196;2024-03-02T00:47:37;32.53;;;16.17;;
61569;SDS011;47462;59.172;17.196;2024-03-02T00:50:04;29.73;;;16.65;;
61569;SDS011;47462;59.172;17.196;2024-03-02T00:52:31;28.48;;;17.58;;
61569;SDS011;47462;59.172;17.196;2024-03-02T00:54:58;30.33;;;16.17;;
61569;SDS011;47462;59.172;17.196;2024-03-02T00:57:24;33.67;;;17.27;;
61569;SDS011;47462;59.172;17.196;2024-03-02T00:59:51;33.53;;;17.77;;
61569;SDS011;47462;59.172;17.196;2024-03-02T01:02:16;32.42;;;18.00;;
61569;SDS011;47462;59.172;17.196;2024-03-02T01:04:42;33.47;;;17.55;;
61569;SDS011;47462;59.172;17.196;2024-03-02T01:07:07;31.02;;;16.83;;
61569;SDS011;47462;59.172;17.196;2024-03-02T01:09:33;26.50;;;15.83;;
61569;SDS011;47462;59.172;17.196;2024-03-02T01:11:58;28.13;;;16.03;;
61569;SDS011;47462;59.172;17.196;2024-03-02T01:14:23;26.10;;;17.10;;
61569;SDS011;47462;59.172;17.196;2024-03-02T01:16:49;24.97;;;14.40;;
61569;SDS011;47462;59.172;17.196;2024-03-02T01:19:14;33.17;;;16.93;;
61569;SDS011;47462;59.172;17.196;2024-03-02T01:21:40;28.73;;;17.45;;
61569;SDS011;47462;59.172;17.196;2024-03-02T01:24:05;27.40;;;16.10;;
61569;SDS011;47462;59.172;17.196;2024-03-02T01:26:31;28.90;;;17.00;;
61569;SDS011;47462;59.172;17.196;2024-03-02T01:28:56;27.67;;;15.63;;
61569;SDS011;47462;59.172;17.196;2024-03-02T01:31:21;24.23;;;14.83;;
61569;SDS011;47462;59.172;17.196;2024-03-02T01:33:47;24.45;;;15.45;;
61569;SDS011;47462;59.172;17.196;2024-03-02T01:36:12;24.30;;;15.30;;
61569;SDS011;47462;59.172;17.196;2024-03-02T01:38:38;38.63;;;15.83;;
61569;SDS011;47462;59.172;17.196;2024-03-02T01:41:03;25.17;;;14.93;;
61569;SDS011;47462;59.172;17.196;2024-03-02T01:43:28;26.83;;;17.37;;
61569;SDS011;47462;59.172;17.196;2024-03-02T01:45:54;33.10;;;16.07;;
61569;SDS011;47462;59.172;17.196;2024-03-02T01:48:19;33.10;;;16.35;;
61569;SDS011;47462;59.172;17.196;2024-03-02T01:50:45;36.93;;;16.53;;
61569;SDS011;47462;59.172;17.196;2024-03-02T01:53:10;27.40;;;15.55;;
61569;SDS011;47462;59.172;17.196;2024-03-02T01:55:36;27.58;;;15.55;;
61569;SDS011;47462;59.172;17.196;2024-03-02T01:58:01;29.00;;;16.33;;
61569;SDS011;47462;59.172;17.196;2024-03-02T02:00:26;31.13;;;16.48;;
61569;SDS011;47462;59.172;17.196;2024-03-02T02:02:52;29.58;;;16.20;;
61569;SDS011;47462;59.172;17.196;2024-03-02T02:07:43;25.15;;;16.40;;
61569;SDS011;47462;59.172;17.196;2024-03-02T02:10:12;25.67;;;15.47;;
61569;SDS011;47462;59.172;17.196;2024-03-02T02:12:38;31.00;;;14.98;;
61569;SDS011;47462;59.172;17.196;2024-03-02T02:17:30;27.05;;;15.73;;
61569;SDS011;47462;59.172;17.196;2024-03-02T02:19:55;28.13;;;15.33;;
61569;SDS011;47462;59.172;17.196;2024-03-02T02:22:21;26.87;;;15.13;;
61569;SDS011;47462;59.172;17.196;2024-03-02T02:24:46;26.83;;;14.80;;
61569;SDS011;47462;59.172;17.196;2024-03-02T02:27:12;22.63;;;14.13;;
61569;SDS011;47462;59.172;17.196;2024-03-02T02:29:40;34.22;;;15.68;;
61569;SDS011;47462;59.172;17.196;2024-03-02T02:32:05;26.77;;;15.13;;
61569;SDS011;47462;59.172;17.196;2024-03-02T02:34:31;26.58;;;16.15;;
61569;SDS011;47462;59.172;17.196;2024-03-02T02:36:56;26.53;;;14.83;;
61569;SDS011;47462;59.172;17.196;2024-03-02T02:39:22;24.07;;;15.00;;
61569;SDS011;47462;59.172;17.196;2024-03-02T02:41:48;26.48;;;15.88;;
61569;SDS011;47462;59.172;17.196;2024-03-02T02:44:13;31.42;;;15.90;;
61569;SDS011;47462;59.172;17.196;2024-03-02T02:46:39;27.42;;;15.02;;
61569;SDS011;47462;59.172;17.196;2024-03-02T02:49:05;23.83;;;14.10;;
61569;SDS011;47462;59.172;17.196;2024-03-02T02:51:30;27.92;;;16.38;;
61569;SDS011;47462;59.172;17.196;2024-03-02T02:53:56;27.13;;;14.80;;
61569;SDS011;47462;59.172;17.196;2024-03-02T02:56:21;27.87;;;15.87;;
61569;SDS011;47462;59.172;17.196;2024-03-02T02:58:47;28.70;;;15.98;;
61569;SDS011;47462;59.172;17.196;2024-03-02T03:01:12;31.35;;;16.42;;
61569;SDS011;47462;59.172;17.196;2024-03-02T03:03:38;27.45;;;14.63;;
61569;SDS011;47462;59.172;17.196;2024-03-02T03:06:03;35.97;;;17.23;;
61569;SDS011;47462;59.172;17.196;2024-03-02T03:08:29;29.23;;;14.97;;
61569;SDS011;47462;59.172;17.196;2024-03-02T03:10:54;30.60;;;15.67;;
61569;SDS011;47462;59.172;17.196;2024-03-02T03:13:19;31.37;;;15.40;;
61569;SDS011;47462;59.172;17.196;2024-03-02T03:15:45;24.83;;;14.77;;
61569;SDS011;47462;59.172;17.196;2024-03-02T03:18:10;25.73;;;14.63;;
61569;SDS011;47462;59.172;17.196;2024-03-02T03:20:36;24.37;;;15.60;;
61569;SDS011;47462;59.172;17.196;2024-03-02T08:37:52;39.80;;;24.00;;
61569;SDS011;47462;59.172;17.196;2024-03-02T08:40:18;36.95;;;22.60;;
61569;SDS011;47462;59.172;17.196;2024-03-02T08:42:44;37.85;;;20.33;;
61569;SDS011;47462;59.172;17.196;2024-03-02T08:45:10;34.90;;;21.73;;
61569;SDS011;47462;59.172;17.196;2024-03-02T08:47:36;35.08;;;19.70;;
61569;SDS011;47462;59.172;17.196;2024-03-02T08:50:02;38.28;;;21.33;;
61569;SDS011;47462;59.172;17.196;2024-03-02T08:52:29;35.13;;;21.42;;
61569;SDS011;47462;59.172;17.196;2024-03-02T08:54:54;35.88;;;20.92;;
61569;SDS011;47462;59.172;17.196;2024-03-02T08:57:21;35.17;;;20.88;;
61569;SDS011;47462;59.172;17.196;2024-03-02T08:59:46;41.38;;;19.85;;
61569;SDS011;47462;59.172;17.196;2024-03-02T09:02:12;31.70;;;18.67;;
61569;SDS011;47462;59.172;17.196;2024-03-02T09:04:38;40.97;;;18.00;;
61569;SDS011;47462;59.172;17.196;2024-03-02T09:07:03;28.27;;;16.33;;
61569;SDS011;47462;59.172;17.196;2024-03-02T09:09:29;36.20;;;17.23;;
61569;SDS011;47462;59.172;17.196;2024-03-02T09:11:57;29.55;;;14.57;;
61569;SDS011;47462;59.172;17.196;2024-03-02T09:14:23;31.23;;;16.33;;
61569;SDS011;47462;59.172;17.196;2024-03-02T09:16:48;29.15;;;14.98;;
61569;SDS011;47462;59.172;17.196;2024-03-02T09:19:14;29.25;;;17.45;;
61569;SDS011;47462;59.172;17.196;2024-03-02T09:21:41;30.98;;;16.25;;
61569;SDS011;47462;59.172;17.196;2024-03-02T09:24:10;34.17;;;18.25;;
61569;SDS011;47462;59.172;17.196;2024-03-02T09:26:36;37.22;;;20.60;;
61569;SDS011;47462;59.172;17.196;2024-03-02T09:29:02;36.28;;;20.58;;
61569;SDS011;47462;59.172;17.196;2024-03-02T09:31:27;69.07;;;40.38;;
61569;SDS011;47462;59.172;17.196;2024-03-02T09:33:53;34.58;;;17.92;;
61569;SDS011;47462;59.172;17.196;2024-03-02T09:36:19;88.45;;;45.72;;
61569;SDS011;47462;59.172;17.196;2024-03-02T09:38:51;45.90;;;25.30;;
61569;SDS011;47462;59.172;17.196;2024-03-02T09:41:17;39.33;;;22.60;;
61569;SDS011;47462;59.172;17.196;2024-03-02T09:43:46;55.90;;;29.65;;
61569;SDS011;47462;59.172;17.196;2024-03-02T09:46:12;90.82;;;45.97;;
61569;SDS011;47462;59.172;17.196;2024-03-02T09:48:37;48.28;;;24.77;;
61569;SDS011;47462;59.172;17.196;2024-03-02T09:51:04;54.70;;;29.05;;
61569;SDS011;47462;59.172;17.196;2024-03-02T09:53:31;38.00;;;22.52;;
61569;SDS011;47462;59.172;17.196;2024-03-02T09:56:02;67.85;;;40.63;;
61569;SDS011;47462;59.172;17.196;2024-03-02T09:58:28;85.85;;;53.83;;
61569;SDS011;47462;59.172;17.196;2024-03-02T10:03:20;50.85;;;29.55;;
61569;SDS011;47462;59.172;17.196;2024-03-02T10:05:48;67.43;;;37.97;;
61569;SDS011;47462;59.172;17.196;2024-03-02T10:08:14;36.78;;;20.10;;
61569;SDS011;47462;59.172;17.196;2024-03-02T10:10:40;33.92;;;18.65;;
61569;SDS011;47462;59.172;17.196;2024-03-02T10:13:08;43.05;;;23.90;;
61569;SDS011;47462;59.172;17.196;2024-03-02T10:15:35;60.53;;;31.52;;
61569;SDS011;47462;59.172;17.196;2024-03-02T10:18:09;53.40;;;29.80;;
61569;SDS011;47462;59.172;17.196;2024-03-02T10:20:37;32.80;;;19.40;;
61569;SDS011;47462;59.172;17.196;2024-03-02T10:23:11;27.85;;;15.25;;
61569;SDS011;47462;59.172;17.196;2024-03-02T10:25:38;29.23;;;16.13;;
61569;SDS011;47462;59.172;17.196;2024-03-02T10:28:05;66.43;;;33.30;;
61569;SDS011;47462;59.172;17.196;2024-03-02T10:30:31;73.72;;;39.08;;
61569;SDS011;47462;59.172;17.196;2024-03-02T10:33:05;100.25;;;51.13;;
61569;SDS011;47462;59.172;17.196;2024-03-02T10:35:32;65.85;;;35.75;;
61569;SDS011;47462;59.172;17.196;2024-03-02T10:38:01;81.88;;;41.90;;
61569;SDS011;47462;59.172;17.196;2024-03-02T10:40:29;72.30;;;37.47;;
61569;SDS011;47462;59.172;17.196;2024-03-02T10:42:55;67.15;;;34.53;;
61569;SDS011;47462;59.172;17.196;2024-03-02T10:45:21;31.58;;;18.65;;
61569;SDS011;47462;59.172;17.196;2024-03-02T10:47:50;37.28;;;21.15;;
61569;SDS011;47462;59.172;17.196;2024-03-02T10:50:16;45.53;;;22.58;;
61569;SDS011;47462;59.172;17.196;2024-03-02T10:52:41;45.83;;;23.63;;
61569;SDS011;47462;59.172;17.196;2024-03-02T10:55:08;32.70;;;17.52;;
61569;SDS011;47462;59.172;17.196;2024-03-02T11:00:11;53.55;;;24.00;;
61569;SDS011;47462;59.172;17.196;2024-03-02T11:02:46;45.05;;;25.67;;
61569;SDS011;47462;59.172;17.196;2024-03-02T11:05:20;36.78;;;18.42;;
61569;SDS011;47462;59.172;17.196;2024-03-02T11:08:02;60.92;;;30.02;;
61569;SDS011;47462;59.172;17.196;2024-03-02T11:10:37;65.30;;;33.10;;
61569;SDS011;47462;59.172;17.196;2024-03-02T11:13:13;50.15;;;26.25;;
61569;SDS011;47462;59.172;17.196;2024-03-02T11:15:40;39.85;;;23.10;;
61569;SDS011;47462;59.172;17.196;2024-03-02T11:18:08;46.13;;;25.33;;
61569;SDS011;47462;59.172;17.196;2024-03-02T11:20:36;50.40;;;23.13;;
61569;SDS011;47462;59.172;17.196;2024-03-02T11:23:04;44.88;;;22.52;;
61569;SDS011;47462;59.172;17.196;2024-03-02T11:25:33;59.13;;;30.52;;
61569;SDS011;47462;59.172;17.196;2024-03-02T11:28:00;56.95;;;28.90;;
61569;SDS011;47462;59.172;17.196;2024-03-02T11:33:01;51.00;;;24.70;;
61569;SDS011;47462;59.172;17.196;2024-03-02T11:35:34;58.25;;;29.90;;
61569;SDS011;47462;59.172;17.196;2024-03-02T11:38:00;54.17;;;28.35;;
61569;SDS011;47462;59.172;17.196;2024-03-02T11:40:26;58.92;;;26.95;;
61569;SDS011;47462;59.172;17.196;2024-03-02T11:43:04;62.25;;;28.73;;
61569;SDS011;47462;59.172;17.196;2024-03-02T11:45:31;59.38;;;30.17;;
61569;SDS011;47462;59.172;17.196;2024-03-02T11:47:58;52.70;;;22.90;;
61569;SDS011;47462;59.172;17.196;2024-03-02T11:50:36;80.78;;;36.40;;
61569;SDS011;47462;59.172;17.196;2024-03-02T11:53:08;56.17;;;25.15;;
61569;SDS011;47462;59.172;17.196;2024-03-02T11:55:35;51.88;;;25.00;;
61569;SDS011;47462;59.172;17.196;2024-03-02T11:58:03;63.17;;;31.83;;
61569;SDS011;47462;59.172;17.196;2024-03-02T12:03:02;97.70;;;44.10;;
61569;SDS011;47462;59.172;17.196;2024-03-02T12:05:31;50.00;;;26.10;;
61569;SDS011;47462;59.172;17.196;2024-03-02T12:07:59;61.60;;;29.70;;
61569;SDS011;47462;59.172;17.196;2024-03-02T12:10:26;46.13;;;21.13;;
61569;SDS011;47462;59.172;17.196;2024-03-02T12:12:55;39.28;;;21.65;;
61569;SDS011;47462;59.172;17.196;2024-03-02T12:15:32;37.75;;;18.85;;
61569;SDS011;47462;59.172;17.196;2024-03-02T12:18:00;44.17;;;23.25;;
61569;SDS011;47462;59.172;17.196;2024-03-02T12:20:30;45.88;;;24.33;;
61569;SDS011;47462;59.172;17.196;2024-03-02T12:23:01;47.78;;;25.08;;
61569;SDS011;47462;59.172;17.196;2024-03-02T12:25:29;40.47;;;22.38;;
61569;SDS011;47462;59.172;17.196;2024-03-02T12:27:57;43.80;;;25.42;;
61569;SDS011;47462;59.172;17.196;2024-03-02T12:30:26;72.85;;;36.22;;
61569;SDS011;47462;59.172;17.196;2024-03-02T12:32:54;49.58;;;28.83;;
61569;SDS011;47462;59.172;17.196;2024-03-02T12:35:20;41.42;;;22.83;;
61569;SDS011;47462;59.172;17.196;2024-03-02T12:37:50;34.65;;;21.80;;
61569;SDS011;47462;59.172;17.196;2024-03-02T12:40:20;52.28;;;23.95;;
61569;SDS011;47462;59.172;17.196;2024-03-02T12:42:48;34.55;;;20.35;;
61569;SDS011;47462;59.172;17.196;2024-03-02T12:45:15;38.72;;;21.65;;
61569;SDS011;47462;59.172;17.196;2024-03-02T12:47:48;30.55;;;17.75;;
61569;SDS011;47462;59.172;17.196;2024-03-02T12:50:14;41.65;;;21.38;;
61569;SDS011;47462;59.172;17.196;2024-03-02T12:52:40;29.95;;;16.60;;
61569;SDS011;47462;59.172;17.196;2024-03-02T12:55:05;28.97;;;16.43;;
61569;SDS011;47462;59.172;17.196;2024-03-02T12:57:32;37.92;;;20.05;;
61569;SDS011;47462;59.172;17.196;2024-03-02T12:59:58;39.05;;;21.20;;
61569;SDS011;47462;59.172;17.196;2024-03-02T13:02:27;26.80;;;17.10;;
61569;SDS011;47462;59.172;17.196;2024-03-02T13:04:54;38.15;;;19.52;;
61569;SDS011;47462;59.172;17.196;2024-03-02T13:07:21;40.67;;;20.83;;
61569;SDS011;47462;59.172;17.196;2024-03-02T13:09:50;45.25;;;23.38;;
61569;SDS011;47462;59.172;17.196;2024-03-02T13:12:17;44.65;;;23.23;;
61569;SDS011;47462;59.172;17.196;2024-03-02T13:14:52;52.63;;;26.08;;
61569;SDS011;47462;59.172;17.196;2024-03-02T13:17:18;48.55;;;27.40;;
61569;SDS011;47462;59.172;17.196;2024-03-02T13:19:53;42.63;;;22.92;;
61569;SDS011;47462;59.172;17.196;2024-03-02T13:22:19;57.17;;;31.65;;
61569;SDS011;47462;59.172;17.196;2024-03-02T13:24:46;48.03;;;22.80;;
61569;SDS011;47462;59.172;17.196;2024-03-02T13:27:11;32.08;;;17.73;;
61569;SDS011;47462;59.172;17.196;2024-03-02T13:29:38;27.42;;;17.25;;
61569;SDS011;47462;59.172;17.196;2024-03-02T13:32:03;33.72;;;16.20;;
61569;SDS011;47462;59.172;17.196;2024-03-02T13:34:29;46.65;;;24.20;;
61569;SDS011;47462;59.172;17.196;2024-03-02T13:36:55;55.63;;;26.83;;
61569;SDS011;47462;59.172;17.196;2024-03-02T13:39:21;42.65;;;24.13;;
61569;SDS011;47462;59.172;17.196;2024-03-02T13:41:47;30.20;;;17.70;;
61569;SDS011;47462;59.172;17.196;2024-03-02T13:44:27;54.83;;;26.65;;
61569;SDS011;47462;59.172;17.196;2024-03-02T13:46:53;34.67;;;18.52;;
61569;SDS011;47462;59.172;17.196;2024-03-02T13:49:18;44.20;;;21.53;;
61569;SDS011;47462;59.172;17.196;2024-03-02T13:51:44;35.42;;;19.30;;
61569;SDS011;47462;59.172;17.196;2024-03-02T13:54:10;53.72;;;25.55;;
61569;SDS011;47462;59.172;17.196;2024-03-02T13:56:37;62.95;;;32.15;;
61569;SDS011;47462;59.172;17.196;2024-03-02T13:59:04;120.53;;;50.15;;
61569;SDS011;47462;59.172;17.196;2024-03-02T14:01:31;82.63;;;34.97;;
61569;SDS011;47462;59.172;17.196;2024-03-02T14:03:58;41.70;;;19.35;;
61569;SDS011;47462;59.172;17.196;2024-03-02T14:06:24;56.63;;;26.23;;
61569;SDS011;47462;59.172;17.196;2024-03-02T14:08:52;48.00;;;22.50;;
61569;SDS011;47462;59.172;17.196;2024-03-02T14:11:18;62.60;;;29.35;;
61569;SDS011;47462;59.172;17.196;2024-03-02T14:13:45;74.80;;;32.42;;
61569;SDS011;47462;59.172;17.196;2024-03-02T14:16:18;34.97;;;18.67;;
61569;SDS011;47462;59.172;17.196;2024-03-02T14:18:44;40.38;;;18.05;;
61569;SDS011;47462;59.172;17.196;2024-03-02T14:21:10;36.90;;;19.40;;
61569;SDS011;47462;59.172;17.196;2024-03-02T14:23:36;60.78;;;25.90;;
61569;SDS011;47462;59.172;17.196;2024-03-02T14:26:02;55.60;;;26.63;;
61569;SDS011;47462;59.172;17.196;2024-03-02T14:30:54;42.08;;;20.45;;
61569;SDS011;47462;59.172;17.196;2024-03-02T14:33:20;28.92;;;15.45;;
61569;SDS011;47462;59.172;17.196;2024-03-02T14:35:46;31.83;;;15.82;;
61569;SDS011;47462;59.172;17.196;2024-03-02T14:38:12;39.10;;;20.38;;
61569;SDS011;47462;59.172;17.196;2024-03-02T14:40:38;50.72;;;22.70;;
61569;SDS011;47462;59.172;17.196;2024-03-02T14:45:30;39.17;;;19.98;;
61569;SDS011;47462;59.172;17.196;2024-03-02T14:47:56;64.43;;;28.50;;
61569;SDS011;47462;59.172;17.196;2024-03-02T14:50:25;32.97;;;18.80;;
61569;SDS011;47462;59.172;17.196;2024-03-02T14:52:51;35.55;;;19.90;;
61569;SDS011;47462;59.172;17.196;2024-03-02T14:55:18;50.10;;;25.63;;
61569;SDS011;47462;59.172;17.196;2024-03-02T14:57:44;51.42;;;25.90;;
61569;SDS011;47462;59.172;17.196;2024-03-02T15:00:10;36.85;;;20.20;;
61569;SDS011;47462;59.172;17.196;2024-03-02T15:02:37;43.58;;;19.92;;
61569;SDS011;47462;59.172;17.196;2024-03-02T15:05:03;32.20;;;16.65;;
61569;SDS011;47462;59.172;17.196;2024-03-02T15:07:31;23.35;;;13.98;;
61569;SDS011;47462;59.172;17.196;2024-03-02T15:09:57;25.55;;;13.52;;
61569;SDS011;47462;59.172;17.196;2024-03-02T15:12:23;25.50;;;13.48;;
61569;SDS011;47462;59.172;17.196;2024-03-02T15:14:49;27.50;;;14.40;;
61569;SDS011;47462;59.172;17.196;2024-03-02T15:17:17;34.00;;;14.93;;
61569;SDS011;47462;59.172;17.196;2024-03-02T15:19:44;41.80;;;21.73;;
61569;SDS011;47462;59.172;17.196;2024-03-02T15:22:10;52.83;;;25.95;;
61569;SDS011;47462;59.172;17.196;2024-03-02T15:24:36;34.22;;;16.95;;
61569;SDS011;47462;59.172;17.196;2024-03-02T15:27:02;38.05;;;16.35;;
61569;SDS011;47462;59.172;17.196;2024-03-02T15:29:30;48.30;;;22.48;;
61569;SDS011;47462;59.172;17.196;2024-03-02T15:31:57;39.50;;;19.90;;
61569;SDS011;47462;59.172;17.196;2024-03-02T15:34:23;48.20;;;20.88;;
61569;SDS011;47462;59.172;17.196;2024-03-02T15:36:49;36.80;;;18.63;;
61569;SDS011;47462;59.172;17.196;2024-03-02T15:39:15;43.40;;;20.80;;
61569;SDS011;47462;59.172;17.196;2024-03-02T15:41:43;43.77;;;20.00;;
61569;SDS011;47462;59.172;17.196;2024-03-02T15:44:09;58.33;;;27.30;;
61569;SDS011;47462;59.172;17.196;2024-03-02T15:46:35;47.30;;;23.05;;
61569;SDS011;47462;59.172;17.196;2024-03-02T15:49:02;44.45;;;22.52;;
61569;SDS011;47462;59.172;17.196;2024-03-02T15:51:34;69.40;;;31.70;;
61569;SDS011;47462;59.172;17.196;2024-03-02T15:54:02;69.57;;;33.63;;
61569;SDS011;47462;59.172;17.196;2024-03-02T15:56:29;39.65;;;19.38;;
61569;SDS011;47462;59.172;17.196;2024-03-02T15:58:55;42.78;;;21.80;;
61569;SDS011;47462;59.172;17.196;2024-03-02T16:01:21;46.83;;;22.88;;
61569;SDS011;47462;59.172;17.196;2024-03-02T16:03:47;40.40;;;20.65;;
61569;SDS011;47462;59.172;17.196;2024-03-02T16:06:12;41.63;;;21.55;;
61569;SDS011;47462;59.172;17.196;2024-03-02T16:08:38;47.70;;;22.30;;
61569;SDS011;47462;59.172;17.196;2024-03-02T16:11:03;31.15;;;16.73;;
61569;SDS011;47462;59.172;17.196;2024-03-02T16:13:29;31.08;;;16.80;;
61569;SDS011;47462;59.172;17.196;2024-03-02T16:15:56;39.80;;;19.35;;
61569;SDS011;47462;59.172;17.196;2024-03-02T16:18:21;36.05;;;18.92;;
61569;SDS011;47462;59.172;17.196;2024-03-02T16:20:47;48.15;;;23.00;;
61569;SDS011;47462;59.172;17.196;2024-03-02T16:23:12;40.83;;;21.45;;
61569;SDS011;47462;59.172;17.196;2024-03-02T16:25:38;52.00;;;27.83;;
61569;SDS011;47462;59.172;17.196;2024-03-02T16:28:06;61.72;;;30.65;;
61569;SDS011;47462;59.172;17.196;2024-03-02T16:30:33;50.60;;;27.95;;
61569;SDS011;47462;59.172;17.196;2024-03-02T16:32:59;41.15;;;21.98;;
61569;SDS011;47462;59.172;17.196;2024-03-02T16:35:24;45.70;;;23.15;;
61569;SDS011;47462;59.172;17.196;2024-03-02T16:37:50;40.40;;;21.05;;
61569;SDS011;47462;59.172;17.196;2024-03-02T16:40:16;40.75;;;20.00;;
61569;SDS011;47462;59.172;17.196;2024-03-02T16:42:41;34.38;;;17.00;;
61569;SDS011;47462;59.172;17.196;2024-03-02T16:45:07;35.50;;;19.47;;
61569;SDS011;47462;59.172;17.196;2024-03-02T16:47:34;49.67;;;23.80;;
61569;SDS011;47462;59.172;17.196;2024-03-02T16:49:59;33.42;;;18.05;;
61569;SDS011;47462;59.172;17.196;2024-03-02T16:52:25;50.47;;;25.38;;
61569;SDS011;47462;59.172;17.196;2024-03-02T16:54:53;36.08;;;19.38;;
61569;SDS011;47462;59.172;17.196;2024-03-02T16:57:21;43.63;;;19.45;;
61569;SDS011;47462;59.172;17.196;2024-03-02T16:59:48;40.45;;;21.10;;
61569;SDS011;47462;59.172;17.196;2024-03-02T17:02:13;38.90;;;21.20;;
61569;SDS011;47462;59.172;17.196;2024-03-02T17:04:39;42.03;;;19.30;;
61569;SDS011;47462;59.172;17.196;2024-03-02T17:07:05;41.47;;;21.75;;
61569;SDS011;47462;59.172;17.196;2024-03-02T17:11:57;41.08;;;23.40;;
61569;SDS011;47462;59.172;17.196;2024-03-02T17:14:22;53.08;;;24.60;;
61569;SDS011;47462;59.172;17.196;2024-03-02T17:16:49;39.22;;;21.35;;
61569;SDS011;47462;59.172;17.196;2024-03-02T17:19:15;52.10;;;26.13;;
61569;SDS011;47462;59.172;17.196;2024-03-02T17:21:41;49.97;;;24.50;;
61569;SDS011;47462;59.172;17.196;2024-03-02T17:24:06;36.50;;;19.40;;
61569;SDS011;47462;59.172;17.196;2024-03-02T17:26:32;39.60;;;20.00;;
61569;SDS011;47462;59.172;17.196;2024-03-02T17:28:57;41.13;;;21.33;;
61569;SDS011;47462;59.172;17.196;2024-03-02T17:31:23;43.40;;;22.00;;
61569;SDS011;47462;59.172;17.196;2024-03-02T17:33:49;43.05;;;25.45;;
61569;SDS011;47462;59.172;17.196;2024-03-02T17:36:15;44.63;;;22.65;;
61569;SDS011;47462;59.172;17.196;2024-03-02T17:38:40;35.45;;;22.20;;
61569;SDS011;47462;59.172;17.196;2024-03-02T17:43:38;40.03;;;23.13;;
61569;SDS011;47462;59.172;17.196;2024-03-02T17:46:04;47.40;;;24.08;;
61569;SDS011;47462;59.172;17.196;2024-03-02T17:48:30;41.28;;;23.05;;
61569;SDS011;47462;59.172;17.196;2024-03-02T17:50:56;42.78;;;21.85;;
61569;SDS011;47462;59.172;17.196;2024-03-02T17:53:21;35.13;;;20.27;;
61569;SDS011;47462;59.172;17.196;2024-03-02T17:55:47;36.70;;;21.33;;
61569;SDS011;47462;59.172;17.196;2024-03-02T17:58:12;46.42;;;24.20;;
61569;SDS011;47462;59.172;17.196;2024-03-02T18:00:38;53.17;;;25.35;;
61569;SDS011;47462;59.172;17.196;2024-03-02T18:03:06;40.78;;;20.95;;
61569;SDS011;47462;59.172;17.196;2024-03-02T18:05:31;34.30;;;19.70;;
61569;SDS011;47462;59.172;17.196;2024-03-02T18:07:57;35.58;;;21.00;;
61569;SDS011;47462;59.172;17.196;2024-03-02T18:10:22;34.50;;;19.50;;
61569;SDS011;47462;59.172;17.196;2024-03-02T18:12:48;35.10;;;19.33;;
61569;SDS011;47462;59.172;17.196;2024-03-02T18:15:13;35.20;;;21.15;;
61569;SDS011;47462;59.172;17.196;2024-03-02T18:17:39;39.70;;;21.58;;
61569;SDS011;47462;59.172;17.196;2024-03-02T18:20:05;39.33;;;22.50;;
61569;SDS011;47462;59.172;17.196;2024-03-02T18:24:57;50.13;;;25.05;;
61569;SDS011;47462;59.172;17.196;2024-03-02T18:29:48;40.10;;;21.65;;
61569;SDS011;47462;59.172;17.196;2024-03-02T18:32:14;40.77;;;21.83;;
61569;SDS011;47462;59.172;17.196;2024-03-02T18:34:39;41.03;;;24.20;;
61569;SDS011;47462;59.172;17.196;2024-03-02T18:37:05;36.90;;;22.25;;
61569;SDS011;47462;59.172;17.196;2024-03-02T18:39:30;39.83;;;22.48;;
61569;SDS011;47462;59.172;17.196;2024-03-02T18:41:56;41.22;;;23.17;;
61569;SDS011;47462;59.172;17.196;2024-03-02T18:44:22;38.70;;;21.17;;
61569;SDS011;47462;59.172;17.196;2024-03-02T18:46:48;45.83;;;24.38;;
61569;SDS011;47462;59.172;17.196;2024-03-02T18:49:14;41.83;;;21.33;;
61569;SDS011;47462;59.172;17.196;2024-03-02T18:51:39;39.63;;;21.80;;
61569;SDS011;47462;59.172;17.196;2024-03-02T18:54:07;34.45;;;20.02;;
61569;SDS011;47462;59.172;17.196;2024-03-02T18:56:33;35.35;;;19.83;;
61569;SDS011;47462;59.172;17.196;2024-03-02T18:58:58;44.35;;;21.67;;
61569;SDS011;47462;59.172;17.196;2024-03-02T19:01:23;39.07;;;21.17;;
61569;SDS011;47462;59.172;17.196;2024-03-02T19:03:49;41.97;;;20.90;;
61569;SDS011;47462;59.172;17.196;2024-03-02T19:06:14;47.17;;;22.07;;
61569;SDS011;47462;59.172;17.196;2024-03-02T19:08:40;39.33;;;22.52;;
61569;SDS011;47462;59.172;17.196;2024-03-02T19:11:12;41.75;;;23.38;;
61569;SDS011;47462;59.172;17.196;2024-03-02T19:13:41;36.45;;;22.23;;
61569;SDS011;47462;59.172;17.196;2024-03-02T19:16:11;40.13;;;21.92;;
61569;SDS011;47462;59.172;17.196;2024-03-02T19:18:37;36.97;;;21.02;;
61569;SDS011;47462;59.172;17.196;2024-03-02T19:23:29;41.67;;;21.48;;
61569;SDS011;47462;59.172;17.196;2024-03-02T19:25:55;45.15;;;22.30;;
61569;SDS011;47462;59.172;17.196;2024-03-02T19:28:21;49.45;;;24.00;;
61569;SDS011;47462;59.172;17.196;2024-03-02T19:30:47;41.95;;;23.25;;
61569;SDS011;47462;59.172;17.196;2024-03-02T19:33:12;44.85;;;23.02;;
61569;SDS011;47462;59.172;17.196;2024-03-02T19:35:40;42.97;;;22.48;;
61569;SDS011;47462;59.172;17.196;2024-03-02T19:40:32;44.78;;;23.73;;
61569;SDS011;47462;59.172;17.196;2024-03-02T19:42:58;44.85;;;23.30;;
61569;SDS011;47462;59.172;17.196;2024-03-02T19:45:25;42.00;;;23.98;;
61569;SDS011;47462;59.172;17.196;2024-03-02T19:47:51;49.15;;;25.90;;
61569;SDS011;47462;59.172;17.196;2024-03-02T19:50:17;45.65;;;23.70;;
61569;SDS011;47462;59.172;17.196;2024-03-02T19:52:45;45.45;;;23.10;;
61569;SDS011;47462;59.172;17.196;2024-03-02T19:55:11;50.90;;;23.75;;